createdAt,value
2018-12-11T00:01:42.694Z,21.50
2018-12-11T00:04:50.661Z,21.60
2018-12-11T00:07:55.212Z,21.60
2018-12-11T00:10:59.930Z,21.60
2018-12-11T00:14:04.486Z,21.60
2018-12-11T00:17:08.982Z,21.50
2018-12-11T00:20:13.514Z,21.50
2018-12-11T00:23:18.040Z,21.40
2018-12-11T00:26:22.578Z,21.40
2018-12-11T00:29:27.109Z,21.30
2018-12-11T00:32:31.617Z,21.30
2018-12-11T00:35:36.161Z,21.20
2018-12-11T00:38:40.668Z,21.20
2018-12-11T00:41:45.190Z,21.20
2018-12-11T00:44:49.732Z,21.20
2018-12-11T00:47:54.281Z,21.10
2018-12-11T00:50:58.771Z,21.10
2018-12-11T00:54:03.302Z,21.10
2018-12-11T00:57:07.822Z,21.10
2018-12-11T01:00:12.554Z,21.10
2018-12-11T01:03:17.081Z,21.00
2018-12-11T01:06:25.798Z,21.00
2018-12-11T01:09:30.334Z,21.00
2018-12-11T01:12:34.858Z,21.00
2018-12-11T01:15:39.382Z,21.00
2018-12-11T01:18:43.922Z,21.00
2018-12-11T01:21:48.441Z,20.90
2018-12-11T01:24:52.966Z,20.90
2018-12-11T01:27:57.510Z,20.90
2018-12-11T01:31:02.026Z,20.90
2018-12-11T01:34:06.561Z,20.90
2018-12-11T01:37:11.073Z,20.90
2018-12-11T01:40:15.613Z,20.90
2018-12-11T01:43:20.137Z,20.90
2018-12-11T01:46:24.650Z,20.80
2018-12-11T01:49:29.181Z,20.80
2018-12-11T01:52:33.698Z,20.80
2018-12-11T01:55:38.230Z,20.80
2018-12-11T01:58:42.961Z,20.80
2018-12-11T02:01:47.707Z,20.80
2018-12-11T02:04:52.221Z,20.80
2018-12-11T02:07:56.742Z,20.70
2018-12-11T02:11:01.266Z,20.70
2018-12-11T02:14:06.001Z,20.70
2018-12-11T02:17:10.541Z,20.60
2018-12-11T02:20:15.058Z,20.60
2018-12-11T02:23:19.585Z,20.60
2018-12-11T02:26:24.213Z,20.60
2018-12-11T02:29:28.738Z,20.60
2018-12-11T02:32:33.269Z,20.60
2018-12-11T02:35:37.802Z,20.50
2018-12-11T02:38:42.310Z,20.50
2018-12-11T02:41:46.859Z,20.50
2018-12-11T02:44:51.382Z,20.50
2018-12-11T02:47:55.894Z,20.50
2018-12-11T02:51:00.417Z,20.40
2018-12-11T02:54:04.926Z,20.40
2018-12-11T02:57:10.483Z,20.40
2018-12-11T03:00:14.907Z,20.40
2018-12-11T03:03:19.447Z,20.40
2018-12-11T03:06:24.586Z,20.40
2018-12-11T03:09:29.098Z,20.30
2018-12-11T03:12:33.627Z,20.30
2018-12-11T03:15:38.165Z,20.30
2018-12-11T03:18:42.683Z,20.30
2018-12-11T03:21:47.462Z,20.30
2018-12-11T03:24:52.034Z,20.30
2018-12-11T03:27:56.789Z,20.30
2018-12-11T03:31:01.313Z,20.20
2018-12-11T03:34:05.861Z,20.20
2018-12-11T03:37:10.345Z,20.20
2018-12-11T03:40:15.904Z,20.10
2018-12-11T03:43:20.419Z,20.20
2018-12-11T03:46:24.945Z,20.10
2018-12-11T03:49:29.473Z,20.10
2018-12-11T03:52:34.002Z,20.10
2018-12-11T03:55:38.593Z,20.10
2018-12-11T03:58:44.234Z,20.10
2018-12-11T04:01:48.889Z,20.10
2018-12-11T04:04:53.438Z,20.10
2018-12-11T04:07:57.998Z,20.00
2018-12-11T04:11:02.497Z,20.00
2018-12-11T04:14:07.283Z,20.10
2018-12-11T04:17:11.850Z,20.10
2018-12-11T04:20:16.190Z,20.00
2018-12-11T04:23:20.701Z,20.00
2018-12-11T04:26:25.275Z,20.00
2018-12-11T04:29:29.869Z,20.00
2018-12-11T04:32:34.413Z,20.00
2018-12-11T04:35:38.906Z,20.00
2018-12-11T04:38:43.473Z,20.00
2018-12-11T04:41:48.756Z,20.00
2018-12-11T04:44:53.338Z,20.00
2018-12-11T04:47:57.827Z,20.00
2018-12-11T04:51:02.458Z,19.90
2018-12-11T04:54:07.462Z,19.90
2018-12-11T04:57:12.066Z,19.90
2018-12-11T05:00:16.660Z,19.90
2018-12-11T05:03:21.539Z,19.90
2018-12-11T05:06:26.029Z,19.90
2018-12-11T05:09:30.582Z,19.90
2018-12-11T05:12:35.165Z,19.90
2018-12-11T05:15:39.745Z,19.90
2018-12-11T05:18:44.321Z,19.90
2018-12-11T05:21:48.894Z,19.90
2018-12-11T05:24:53.477Z,19.90
2018-12-11T05:27:58.033Z,20.00
2018-12-11T05:31:02.537Z,20.00
2018-12-11T05:34:07.082Z,20.00
2018-12-11T05:37:11.735Z,20.00
2018-12-11T05:40:16.303Z,20.10
2018-12-11T05:43:20.841Z,20.10
2018-12-11T05:46:25.398Z,20.10
2018-12-11T05:49:29.894Z,20.20
2018-12-11T05:52:34.531Z,20.20
2018-12-11T05:55:39.061Z,20.30
2018-12-11T05:58:43.601Z,20.40
2018-12-11T06:01:48.098Z,20.40
2018-12-11T06:04:53.373Z,20.50
2018-12-11T06:07:57.974Z,20.50
2018-12-11T06:11:02.542Z,20.60
2018-12-11T06:14:07.506Z,20.60
2018-12-11T06:17:12.135Z,20.60
2018-12-11T06:20:18.210Z,20.70
2018-12-11T06:23:25.394Z,20.80
2018-12-11T06:26:30.822Z,20.80
2018-12-11T06:29:35.498Z,20.80
2018-12-11T06:32:40.016Z,20.80
2018-12-11T06:35:44.569Z,20.90
2018-12-11T06:38:49.070Z,20.90
2018-12-11T06:41:53.594Z,21.00
2018-12-11T06:44:58.142Z,21.00
2018-12-11T06:48:02.666Z,21.00
2018-12-11T06:51:07.189Z,20.90
2018-12-11T06:54:11.697Z,20.90
2018-12-11T06:57:16.245Z,21.00
2018-12-11T07:00:20.754Z,21.00
2018-12-11T07:03:25.297Z,21.00
2018-12-11T07:06:29.821Z,21.00
2018-12-11T07:09:34.330Z,21.00
2018-12-11T07:12:38.956Z,21.00
2018-12-11T07:15:43.591Z,21.00
2018-12-11T07:18:48.111Z,21.10
2018-12-11T07:21:52.642Z,21.10
2018-12-11T07:24:59.008Z,21.10
2018-12-11T07:28:03.535Z,21.10
2018-12-11T07:31:08.070Z,21.10
2018-12-11T07:34:12.590Z,21.20
2018-12-11T07:37:17.119Z,21.20
2018-12-11T07:40:21.648Z,21.20
2018-12-11T07:43:26.370Z,21.20
2018-12-11T07:46:30.902Z,21.20
2018-12-11T07:49:35.522Z,21.30
2018-12-11T07:52:40.050Z,21.30
2018-12-11T07:55:44.579Z,21.30
2018-12-11T07:58:49.102Z,21.30
2018-12-11T08:01:53.837Z,21.30
2018-12-11T08:04:58.366Z,21.30
2018-12-11T08:08:02.912Z,21.30
2018-12-11T08:11:08.906Z,21.30
2018-12-11T08:14:13.482Z,21.40
2018-12-11T08:17:18.009Z,21.50
2018-12-11T08:20:22.536Z,21.60
2018-12-11T08:23:27.061Z,21.70
2018-12-11T08:26:31.591Z,21.90
2018-12-11T08:29:36.113Z,22.00
2018-12-11T08:32:40.637Z,22.00
2018-12-11T08:35:45.161Z,22.10
2018-12-11T08:38:49.690Z,22.20
2018-12-11T08:41:54.217Z,22.20
2018-12-11T08:44:58.838Z,22.30
2018-12-11T08:48:03.377Z,22.30
2018-12-11T08:51:07.930Z,22.40
2018-12-11T08:54:12.473Z,22.40
2018-12-11T08:57:16.994Z,22.40
2018-12-11T09:00:21.618Z,22.50
2018-12-11T09:03:26.166Z,22.50
2018-12-11T09:06:31.691Z,22.60
2018-12-11T09:09:36.230Z,22.60
2018-12-11T09:12:40.742Z,22.60
2018-12-11T09:15:45.290Z,22.60
2018-12-11T09:18:49.802Z,22.60
2018-12-11T09:21:54.343Z,22.70
2018-12-11T09:24:58.862Z,22.70
2018-12-11T09:28:03.584Z,22.70
2018-12-11T09:31:08.121Z,22.70
2018-12-11T09:34:12.630Z,22.70
2018-12-11T09:37:17.158Z,22.70
2018-12-11T09:40:24.492Z,22.70
2018-12-11T09:43:28.450Z,22.80
2018-12-11T09:46:33.007Z,22.80
2018-12-11T09:49:37.586Z,22.80
2018-12-11T09:52:42.146Z,22.80
2018-12-11T09:55:46.822Z,22.80
2018-12-11T09:58:51.614Z,22.80
2018-12-11T10:01:56.173Z,22.80
2018-12-11T10:05:00.764Z,22.80
2018-12-11T10:08:05.473Z,22.70
2018-12-11T10:11:10.018Z,22.70
2018-12-11T10:14:14.590Z,22.70
2018-12-11T10:17:19.193Z,22.70
2018-12-11T10:20:25.039Z,22.70
2018-12-11T10:23:31.930Z,22.70
2018-12-11T10:26:36.622Z,22.80
2018-12-11T10:29:41.290Z,22.80
2018-12-11T10:32:50.011Z,22.80
2018-12-11T10:35:54.526Z,22.90
2018-12-11T10:38:59.087Z,22.90
2018-12-11T10:42:03.582Z,22.90
2018-12-11T10:45:08.230Z,22.90
2018-12-11T10:48:12.741Z,23.00
2018-12-11T10:51:17.294Z,23.00
2018-12-11T10:54:21.787Z,23.00
2018-12-11T10:57:26.457Z,23.00
2018-12-11T11:00:36.222Z,23.00
2018-12-11T11:03:40.839Z,23.00
2018-12-11T11:06:45.418Z,23.00
2018-12-11T11:09:50.209Z,23.00
2018-12-11T11:12:54.782Z,23.00
2018-12-11T11:15:59.345Z,23.00
2018-12-11T11:19:03.942Z,23.00
2018-12-11T11:22:08.569Z,23.00
2018-12-11T11:25:13.090Z,23.00
2018-12-11T11:28:17.909Z,23.00
2018-12-11T11:31:22.467Z,23.00
2018-12-11T11:34:27.762Z,23.00
2018-12-11T11:37:32.326Z,23.10
2018-12-11T11:40:37.439Z,23.10
2018-12-11T11:43:41.990Z,23.10
2018-12-11T11:46:46.664Z,23.10
2018-12-11T11:49:51.263Z,23.10
2018-12-11T11:52:55.802Z,23.10
2018-12-11T11:56:00.306Z,23.10
2018-12-11T11:59:04.940Z,23.10
2018-12-11T12:02:09.595Z,23.00
2018-12-11T12:05:14.390Z,23.10
2018-12-11T12:08:18.926Z,23.10
2018-12-11T12:11:25.530Z,23.10
2018-12-11T12:14:30.018Z,23.00
2018-12-11T12:17:34.572Z,23.00
2018-12-11T12:20:39.070Z,23.10
2018-12-11T12:23:43.727Z,23.10
2018-12-11T12:26:48.226Z,23.10
2018-12-11T12:29:52.783Z,23.10
2018-12-11T12:32:57.273Z,23.10
2018-12-11T12:36:01.866Z,23.10
2018-12-11T12:39:08.430Z,23.10
2018-12-11T12:42:13.042Z,23.10
2018-12-11T12:45:17.534Z,23.10
2018-12-11T12:48:22.136Z,23.10
2018-12-11T12:51:27.038Z,23.10
2018-12-11T12:54:32.674Z,23.10
2018-12-11T12:57:37.174Z,23.10
2018-12-11T13:00:41.830Z,23.10
2018-12-11T13:03:47.077Z,23.10
2018-12-11T13:06:52.102Z,23.10
2018-12-11T13:09:56.610Z,23.10
2018-12-11T13:13:01.521Z,23.10
2018-12-11T13:16:06.078Z,23.10
2018-12-11T13:19:10.630Z,23.10
2018-12-11T13:22:15.127Z,23.10
2018-12-11T13:25:20.518Z,23.10
2018-12-11T13:28:25.116Z,23.10
2018-12-11T13:31:29.708Z,23.10
2018-12-11T13:34:34.360Z,23.10
2018-12-11T13:37:39.030Z,23.10
2018-12-11T13:40:43.959Z,23.20
2018-12-11T13:43:48.846Z,23.10
2018-12-11T13:46:53.848Z,23.20
2018-12-11T13:49:58.454Z,23.20
2018-12-11T13:53:02.952Z,23.20
2018-12-11T13:56:07.506Z,23.20
2018-12-11T13:59:12.002Z,23.20
2018-12-11T14:02:16.571Z,23.10
2018-12-11T14:05:21.159Z,23.20
2018-12-11T14:08:26.016Z,23.20
2018-12-11T14:11:30.877Z,23.20
2018-12-11T14:14:35.627Z,23.20
2018-12-11T14:17:40.182Z,23.20
2018-12-11T14:20:44.721Z,23.20
2018-12-11T14:23:49.238Z,23.20
2018-12-11T14:26:54.891Z,23.20
2018-12-11T14:29:59.742Z,23.20
2018-12-11T14:33:04.246Z,23.20
2018-12-11T14:36:08.771Z,23.20
2018-12-11T14:39:13.702Z,23.10
2018-12-11T14:42:18.251Z,23.10
2018-12-11T14:45:22.863Z,23.20
2018-12-11T14:48:28.043Z,23.10
2018-12-11T14:51:32.574Z,23.20
2018-12-11T14:54:37.094Z,23.20
2018-12-11T14:57:41.621Z,23.20
2018-12-11T15:00:46.151Z,23.20
2018-12-11T15:03:50.677Z,23.20
2018-12-11T15:06:55.219Z,23.20
2018-12-11T15:09:59.836Z,23.10
2018-12-11T15:13:04.514Z,23.20
2018-12-11T15:16:09.540Z,23.20
2018-12-11T15:19:14.017Z,23.20
2018-12-11T15:22:18.564Z,23.20
2018-12-11T15:25:23.091Z,23.20
2018-12-11T15:28:27.601Z,23.20
2018-12-11T15:31:32.126Z,23.20
2018-12-11T15:34:36.654Z,23.20
2018-12-11T15:37:41.182Z,23.20
2018-12-11T15:40:45.727Z,23.20
2018-12-11T15:43:50.744Z,23.20
2018-12-11T15:46:55.373Z,23.20
2018-12-11T15:49:59.906Z,23.20
2018-12-11T15:53:04.425Z,23.20
2018-12-11T15:56:08.956Z,23.20
2018-12-11T15:59:13.477Z,23.20
2018-12-11T16:02:18.009Z,23.20
2018-12-11T16:05:22.538Z,23.20
2018-12-11T16:08:27.058Z,23.20
2018-12-11T16:11:31.598Z,23.20
2018-12-11T16:14:36.133Z,23.20
2018-12-11T16:17:40.645Z,23.30
2018-12-11T16:20:45.185Z,23.20
2018-12-11T16:23:49.689Z,23.30
2018-12-11T16:26:54.218Z,23.20
2018-12-11T16:29:58.909Z,23.20
2018-12-11T16:33:03.477Z,23.30
2018-12-11T16:36:08.018Z,23.30
2018-12-11T16:39:12.526Z,23.30
2018-12-11T16:42:19.862Z,23.30
2018-12-11T16:45:24.342Z,23.30
2018-12-11T16:48:28.874Z,23.30
2018-12-11T16:51:33.418Z,23.30
2018-12-11T16:54:37.942Z,23.30
2018-12-11T16:57:42.516Z,23.30
2018-12-11T17:00:47.077Z,23.30
2018-12-11T17:03:51.609Z,23.30
2018-12-11T17:06:56.135Z,23.30
2018-12-11T17:10:01.724Z,23.30
2018-12-11T17:13:06.214Z,23.30
2018-12-11T17:16:10.734Z,23.30
2018-12-11T17:19:15.258Z,23.30
2018-12-11T17:22:19.785Z,23.20
2018-12-11T17:25:24.311Z,23.20
2018-12-11T17:28:28.842Z,23.30
2018-12-11T17:31:33.369Z,23.30
2018-12-11T17:34:37.890Z,23.30
2018-12-11T17:37:42.418Z,23.30
2018-12-11T17:40:46.950Z,23.30
2018-12-11T17:43:51.473Z,23.30
2018-12-11T17:46:55.998Z,23.30
2018-12-11T17:50:00.526Z,23.30
2018-12-11T17:53:05.057Z,23.30
2018-12-11T17:56:09.578Z,23.30
2018-12-11T17:59:14.454Z,23.30
2018-12-11T18:02:23.417Z,23.30
2018-12-11T18:05:27.973Z,23.30
2018-12-11T18:08:32.510Z,23.30
2018-12-11T18:11:37.024Z,23.30
2018-12-11T18:14:41.570Z,23.30
2018-12-11T18:17:46.073Z,23.30
2018-12-11T18:20:50.614Z,23.30
2018-12-11T18:23:55.149Z,23.30
2018-12-11T18:26:59.662Z,23.30
2018-12-11T18:30:04.714Z,23.30
2018-12-11T18:33:10.262Z,23.30
2018-12-11T18:36:14.779Z,23.30
2018-12-11T18:39:19.293Z,23.30
2018-12-11T18:42:23.843Z,23.30
2018-12-11T18:45:28.665Z,23.30
2018-12-11T18:48:33.246Z,23.30
2018-12-11T18:51:37.830Z,23.30
2018-12-11T18:54:42.334Z,23.30
2018-12-11T18:57:46.870Z,23.20
2018-12-11T19:00:51.386Z,23.20
2018-12-11T19:03:55.914Z,23.20
2018-12-11T19:07:00.462Z,23.20
2018-12-11T19:10:06.523Z,23.20
2018-12-11T19:13:11.136Z,23.20
2018-12-11T19:16:15.661Z,23.20
2018-12-11T19:19:20.186Z,23.20
2018-12-11T19:22:24.710Z,23.20
2018-12-11T19:25:29.513Z,23.20
2018-12-11T19:28:34.174Z,23.20
2018-12-11T19:31:39.074Z,23.20
2018-12-11T19:34:43.638Z,23.20
2018-12-11T19:37:48.524Z,23.10
2018-12-11T19:40:53.118Z,22.90
2018-12-11T19:43:57.742Z,22.90
2018-12-11T19:47:02.273Z,22.80
2018-12-11T19:50:07.386Z,22.80
2018-12-11T19:53:13.028Z,22.80
2018-12-11T19:56:17.631Z,23.00
2018-12-11T19:59:22.949Z,23.00
2018-12-11T20:02:27.549Z,23.20
2018-12-11T20:05:32.386Z,23.20
2018-12-11T20:08:37.693Z,23.30
2018-12-11T20:11:42.255Z,23.40
2018-12-11T20:14:46.781Z,23.40
2018-12-11T20:17:51.342Z,23.40
2018-12-11T20:20:55.833Z,23.40
2018-12-11T20:24:04.987Z,23.40
2018-12-11T20:27:07.259Z,23.40
2018-12-11T20:30:11.794Z,23.40
2018-12-11T20:33:16.290Z,23.40
2018-12-11T20:36:20.822Z,23.40
2018-12-11T20:39:25.341Z,23.40
2018-12-11T20:42:29.865Z,23.40
2018-12-11T20:45:34.410Z,23.30
2018-12-11T20:48:39.091Z,23.30
2018-12-11T20:51:43.657Z,23.30
2018-12-11T20:54:48.180Z,23.20
2018-12-11T20:57:52.702Z,23.20
2018-12-11T21:00:57.238Z,23.20
2018-12-11T21:04:01.862Z,23.10
2018-12-11T21:07:06.390Z,23.10
2018-12-11T21:10:12.366Z,23.00
2018-12-11T21:13:17.082Z,23.00
2018-12-11T21:16:21.637Z,22.90
2018-12-11T21:19:26.235Z,22.90
2018-12-11T21:22:30.804Z,22.90
2018-12-11T21:25:35.394Z,22.80
2018-12-11T21:28:40.851Z,22.80
2018-12-11T21:31:45.503Z,22.80
2018-12-11T21:34:50.093Z,22.70
2018-12-11T21:37:55.146Z,22.70
2018-12-11T21:40:59.678Z,22.60
2018-12-11T21:44:04.222Z,22.60
2018-12-11T21:47:08.714Z,22.60
2018-12-11T21:50:13.783Z,22.50
2018-12-11T21:53:18.436Z,22.40
2018-12-11T21:56:23.178Z,22.40
2018-12-11T21:59:28.071Z,22.30
2018-12-11T22:02:32.822Z,22.20
2018-12-11T22:05:37.526Z,22.10
2018-12-11T22:08:42.326Z,22.00
2018-12-11T22:11:47.081Z,22.00
2018-12-11T22:14:51.738Z,21.90
2018-12-11T22:17:56.241Z,21.90
2018-12-11T22:21:00.786Z,21.80
2018-12-11T22:24:05.514Z,21.80
2018-12-11T22:27:10.070Z,21.80
2018-12-11T22:30:14.655Z,21.70
2018-12-11T22:33:19.201Z,21.70
2018-12-11T22:36:23.700Z,21.60
2018-12-11T22:39:28.486Z,21.60
2018-12-11T22:42:33.066Z,21.50
2018-12-11T22:45:37.616Z,21.50
2018-12-11T22:48:42.459Z,21.50
2018-12-11T22:51:47.661Z,21.50
2018-12-11T22:54:52.191Z,21.40
2018-12-11T22:57:56.750Z,21.40
2018-12-11T23:01:01.344Z,21.40
2018-12-11T23:04:08.034Z,21.40
2018-12-11T23:07:12.546Z,21.30
2018-12-11T23:10:17.108Z,21.30
2018-12-11T23:13:21.702Z,21.30
2018-12-11T23:16:26.462Z,21.20
2018-12-11T23:19:31.054Z,21.20
2018-12-11T23:22:35.640Z,21.20
2018-12-11T23:25:40.226Z,21.20
2018-12-11T23:28:44.870Z,21.20
2018-12-11T23:31:49.378Z,21.10
2018-12-11T23:34:54.787Z,21.10
2018-12-11T23:37:59.343Z,21.10
2018-12-11T23:41:04.181Z,21.10
2018-12-11T23:44:08.699Z,21.10
2018-12-11T23:47:13.258Z,21.00
2018-12-11T23:50:17.987Z,21.00
2018-12-11T23:53:22.606Z,21.00
2018-12-11T23:56:27.215Z,21.00
2018-12-11T23:59:31.770Z,21.00
